Time;durP1;ratioP1;P1;durP2;ratioP2;P2;SDS_P1;SDS_P2;PMS_P1;PMS_P2;Temp;Humidity;BMP_temperature;BMP_pressure;BME280_temperature;BME280_humidity;BME280_pressure;Samples;Min_cycle;Max_cycle;Signal;HPM_P1;HPM_P2
2023/12/14 00:07:10;;;;;;;22.20;16.90;;;;;;;2.04;100.00;98290.70;435975;1260;140057;-64
2023/12/14 00:17:17;;;;;;;29.20;19.20;;;;;;;2.05;100.00;98289.07;432155;1257;140469;-63
2023/12/14 00:27:23;;;;;;;34.70;24.80;;;;;;;2.05;100.00;98302.55;433279;1260;140163;-62
2023/12/14 00:37:29;;;;;;;29.20;19.40;;;;;;;2.08;100.00;98317.77;433305;1254;140383;-64
2023/12/14 00:47:35;;;;;;;31.20;22.10;;;;;;;2.08;100.00;98330.73;433430;1254;140066;-63
2023/12/14 00:57:42;;;;;;;32.00;21.20;;;;;;;2.05;100.00;98343.44;433634;1258;140885;-63
2023/12/14 01:07:48;;;;;;;30.60;22.00;;;;;;;2.02;100.00;98357.41;432341;1256;160636;-63
2023/12/14 01:17:54;;;;;;;31.30;21.00;;;;;;;1.97;100.00;98363.86;432980;1259;140661;-63
2023/12/14 01:28:01;;;;;;;31.30;21.70;;;;;;;1.90;100.00;98362.83;432433;1260;140744;-63
2023/12/14 01:38:07;;;;;;;32.50;19.50;;;;;;;1.85;100.00;98367.91;432248;1260;141785;-64
2023/12/14 01:48:13;;;;;;;30.10;18.60;;;;;;;1.76;100.00;98366.76;432929;1260;140045;-63
2023/12/14 01:58:20;;;;;;;28.70;18.70;;;;;;;1.65;100.00;98363.52;433980;1260;141238;-64
2023/12/14 02:08:26;;;;;;;25.00;17.80;;;;;;;1.62;100.00;98368.10;432781;1257;140343;-64
2023/12/14 02:18:32;;;;;;;22.50;14.80;;;;;;;1.58;100.00;98368.31;436957;1254;139349;-63
2023/12/14 02:28:39;;;;;;;20.30;13.40;;;;;;;1.52;100.00;98367.17;435449;1257;140607;-62
2023/12/14 02:38:45;;;;;;;22.20;13.70;;;;;;;1.49;100.00;98379.92;432907;1257;139293;-62
2023/12/14 02:48:52;;;;;;;11.50;9.20;;;;;;;1.45;100.00;98386.69;432624;1255;139800;-63
2023/12/14 02:58:58;;;;;;;14.30;10.20;;;;;;;1.43;100.00;98392.98;431979;1258;144012;-62
2023/12/14 03:09:04;;;;;;;10.20;7.90;;;;;;;1.43;100.00;98401.27;438599;1256;139423;-62
2023/12/14 03:19:11;;;;;;;10.30;7.90;;;;;;;1.44;100.00;98407.23;433410;1259;139190;-63
2023/12/14 03:29:17;;;;;;;10.20;7.20;;;;;;;1.45;100.00;98414.95;434546;1257;140255;-64
2023/12/14 03:39:23;;;;;;;9.50;8.30;;;;;;;1.44;100.00;98427.05;432991;1255;139044;-63
2023/12/14 03:49:30;;;;;;;11.00;9.30;;;;;;;1.44;100.00;98438.78;436590;1255;139103;-62
2023/12/14 03:59:39;;;;;;;13.30;9.40;;;;;;;1.41;100.00;98448.77;432781;1254;140142;-64
2023/12/14 04:09:47;;;;;;;11.70;9.20;;;;;;;1.37;100.00;98460.30;435016;1257;139522;-63
2023/12/14 04:19:53;;;;;;;13.40;9.00;;;;;;;1.33;100.00;98463.06;432803;1259;140969;-63
2023/12/14 04:29:59;;;;;;;11.30;9.70;;;;;;;1.33;100.00;98476.34;432707;1258;140480;-63
2023/12/14 04:40:08;;;;;;;9.80;8.70;;;;;;;1.35;100.00;98491.61;432885;1259;140886;-63
2023/12/14 04:50:14;;;;;;;10.90;9.80;;;;;;;1.36;100.00;98508.79;434026;1258;139255;-63
2023/12/14 05:00:21;;;;;;;15.70;11.50;;;;;;;1.37;100.00;98516.54;433376;1257;139707;-62
2023/12/14 05:10:27;;;;;;;15.00;10.20;;;;;;;1.36;100.00;98529.31;436332;1260;139474;-63
2023/12/14 05:20:34;;;;;;;15.80;12.10;;;;;;;1.38;100.00;98538.73;434449;1255;140134;-62
2023/12/14 05:30:40;;;;;;;17.20;12.60;;;;;;;1.36;100.00;98554.31;434087;1255;140217;-63
2023/12/14 05:40:47;;;;;;;16.00;13.30;;;;;;;1.36;100.00;98567.79;434526;1257;139522;-62
2023/12/14 05:50:54;;;;;;;17.70;11.80;;;;;;;1.33;100.00;98576.88;436034;1257;139339;-64
2023/12/14 06:01:00;;;;;;;17.20;13.10;;;;;;;1.34;100.00;98581.69;433189;1255;141091;-63
2023/12/14 06:11:06;;;;;;;11.60;8.90;;;;;;;1.33;100.00;98596.73;432705;1257;140127;-64
2023/12/14 06:21:13;;;;;;;21.20;15.10;;;;;;;1.31;100.00;98609.71;435894;1257;140084;-62
2023/12/14 06:31:22;;;;;;;16.20;13.00;;;;;;;1.32;100.00;98619.89;433707;1254;139665;-62
2023/12/14 06:41:29;;;;;;;17.70;12.40;;;;;;;1.35;100.00;98624.90;435818;1258;140356;-63
2023/12/14 06:51:35;;;;;;;16.20;12.40;;;;;;;1.33;100.00;98652.25;435005;1259;141080;-63
2023/12/14 07:01:42;;;;;;;16.60;11.20;;;;;;;1.31;100.00;98664.57;432319;1259;140453;-63
2023/12/14 07:11:49;;;;;;;19.50;13.60;;;;;;;1.29;100.00;98685.67;433571;1257;139581;-63
2023/12/14 07:21:55;;;;;;;21.90;15.00;;;;;;;1.30;100.00;98695.14;432688;1258;139421;-63
2023/12/14 07:32:01;;;;;;;16.50;12.60;;;;;;;1.33;100.00;98698.95;432256;1260;140287;-63
2023/12/14 07:42:08;;;;;;;20.20;15.10;;;;;;;1.37;100.00;98707.96;432643;1255;139679;-64
2023/12/14 07:52:14;;;;;;;21.60;16.10;;;;;;;1.44;100.00;98722.35;433602;1255;139330;-64
2023/12/14 08:02:21;;;;;;;26.00;16.50;;;;;;;1.52;100.00;98729.27;432987;1257;140252;-62
2023/12/14 08:12:28;;;;;;;22.70;16.30;;;;;;;1.61;100.00;98741.31;433613;1260;139841;-63
2023/12/14 08:22:34;;;;;;;20.30;15.70;;;;;;;1.72;100.00;98759.32;434290;1260;139247;-75
2023/12/14 08:32:41;;;;;;;21.70;15.80;;;;;;;1.78;100.00;98771.01;435232;1256;139561;-75
2023/12/14 08:42:49;;;;;;;20.50;13.90;;;;;;;1.79;100.00;98784.77;438269;1260;139793;-71
2023/12/14 08:52:58;;;;;;;25.30;15.20;;;;;;;1.78;100.00;98803.96;438153;1258;139429;-66
2023/12/14 09:03:04;;;;;;;15.60;11.60;;;;;;;1.79;100.00;98826.67;437012;1255;139338;-70
2023/12/14 09:13:11;;;;;;;13.90;11.50;;;;;;;1.82;100.00;98838.48;438343;1260;140057;-68
2023/12/14 09:23:18;;;;;;;16.90;12.80;;;;;;;1.80;100.00;98852.90;438403;1257;139083;-79
2023/12/14 09:33:25;;;;;;;20.00;14.60;;;;;;;1.85;100.00;98857.70;439611;1255;139365;-72
2023/12/14 09:43:32;;;;;;;19.30;16.10;;;;;;;1.91;100.00;98865.05;438570;1258;139722;-70
2023/12/14 09:53:38;;;;;;;26.70;19.50;;;;;;;1.95;100.00;98876.11;438826;1259;139349;-67
2023/12/14 10:03:44;;;;;;;16.90;14.50;;;;;;;1.93;100.00;98890.69;438516;1258;140156;-74
2023/12/14 10:13:51;;;;;;;20.00;15.90;;;;;;;1.92;100.00;98895.75;438730;1257;139829;-71
2023/12/14 10:23:59;;;;;;;19.10;14.00;;;;;;;1.96;100.00;98904.20;438951;1255;141615;-76
2023/12/14 10:34:05;;;;;;;15.10;12.50;;;;;;;1.97;100.00;98915.05;438670;1258;139460;-67
2023/12/14 10:44:12;;;;;;;15.50;12.20;;;;;;;2.03;100.00;98920.49;432568;1260;141306;-66
2023/12/14 10:54:41;;;;;;;13.50;12.00;;;;;;;2.11;100.00;98934.20;446265;1258;140124;-73
2023/12/14 11:05:05;;;;;;;13.00;11.50;;;;;;;2.13;100.00;98943.09;438279;1259;139891;-68
2023/12/14 11:15:12;;;;;;;16.30;13.50;;;;;;;2.13;100.00;98944.80;432296;1259;140915;-66
2023/12/14 11:25:19;;;;;;;15.20;12.10;;;;;;;2.13;100.00;98950.17;432373;1255;141553;-66
2023/12/14 11:35:37;;;;;;;18.70;15.40;;;;;;;2.11;100.00;98951.95;434664;1260;139627;-65
2023/12/14 11:45:44;;;;;;;20.20;14.70;;;;;;;2.03;100.00;98964.53;432280;1260;139976;-64
2023/12/14 11:55:50;;;;;;;20.50;16.70;;;;;;;2.04;100.00;98976.41;438353;1258;139627;-65
2023/12/14 12:05:57;;;;;;;17.00;13.10;;;;;;;2.02;100.00;98980.48;440050;1259;140412;-65
2023/12/14 12:16:03;;;;;;;19.30;16.80;;;;;;;2.00;100.00;98991.60;437136;1260;139951;-70
2023/12/14 12:26:10;;;;;;;15.00;11.80;;;;;;;1.96;100.00;98998.98;434840;1259;140824;-66
2023/12/14 12:36:16;;;;;;;14.00;12.40;;;;;;;1.97;100.00;99008.95;442032;1260;140024;-75
2023/12/14 12:46:23;;;;;;;20.10;15.10;;;;;;;1.99;100.00;99017.88;435394;1255;140804;-72
2023/12/14 12:56:29;;;;;;;17.10;12.30;;;;;;;1.93;100.00;99025.16;437000;1260;140045;-69
2023/12/14 13:06:35;;;;;;;19.90;14.50;;;;;;;1.86;100.00;99028.89;438334;1259;178173;-70
2023/12/14 13:16:44;;;;;;;22.10;18.10;;;;;;;1.81;100.00;99037.00;432832;1259;140596;-64
2023/12/14 13:26:50;;;;;;;27.50;18.80;;;;;;;1.76;100.00;99038.55;438944;1260;139571;-76
2023/12/14 13:37:00;;;;;;;20.00;14.60;;;;;;;1.70;100.00;99058.80;432467;1255;139786;-69
2023/12/14 13:47:09;;;;;;;18.00;13.30;;;;;;;1.57;100.00;99084.10;439882;1259;140063;-75
2023/12/14 13:57:16;;;;;;;19.90;15.00;;;;;;;1.48;100.00;99104.95;434585;1260;139638;-71
2023/12/14 14:07:22;;;;;;;18.80;13.80;;;;;;;1.40;100.00;99127.10;442138;1256;139751;-70
2023/12/14 14:17:28;;;;;;;22.20;15.90;;;;;;;1.37;100.00;99134.80;436704;1260;140085;-73
2023/12/14 14:27:36;;;;;;;24.00;18.60;;;;;;;1.34;100.00;99142.83;438401;1260;139725;-69
2023/12/14 14:37:44;;;;;;;;;;;;;;;1.32;100.00;99159.95;432575;1260;140328;-72
2023/12/14 14:47:52;;;;;;;23.80;17.20;;;;;;;1.31;100.00;99174.15;439042;1258;126851;-70
2023/12/14 14:57:58;;;;;;;26.80;17.90;;;;;;;1.30;100.00;99185.21;435055;1260;139348;-67
2023/12/14 15:08:06;;;;;;;32.80;20.60;;;;;;;1.29;100.00;99204.05;437244;1259;140553;-70
2023/12/14 15:18:12;;;;;;;29.30;19.60;;;;;;;1.29;100.00;99216.14;432772;1259;140294;-68
2023/12/14 15:28:19;;;;;;;34.00;23.20;;;;;;;1.28;100.00;99227.20;433060;1260;139675;-65
2023/12/14 15:38:26;;;;;;;34.00;20.40;;;;;;;1.29;100.00;99238.73;433777;1260;139746;-79
2023/12/14 15:48:33;;;;;;;28.80;17.80;;;;;;;1.27;100.00;99258.27;432328;1260;140789;-65
2023/12/14 16:05:42;;;;;;;28.20;18.80;;;;;;;1.23;100.00;99279.07;424961;1299;620350;-67
2023/12/14 16:15:49;;;;;;;29.60;18.60;;;;;;;1.21;100.00;99298.62;434678;1270;181398;-66
2023/12/14 16:25:58;;;;;;;31.40;18.30;;;;;;;1.18;100.00;99308.02;430930;1269;139068;-68
2023/12/14 16:36:10;;;;;;;24.80;17.00;;;;;;;1.10;100.00;99327.05;437497;1267;139910;-68
2023/12/14 16:46:22;;;;;;;25.20;15.60;;;;;;;1.04;100.00;99341.35;436039;1266;139382;-71
2023/12/14 16:56:31;;;;;;;21.10;14.20;;;;;;;1.02;100.00;99350.04;436156;1267;138846;-70
2023/12/14 17:06:38;;;;;;;22.50;14.20;;;;;;;1.00;100.00;99363.71;432252;1265;138664;-68
2023/12/14 17:16:47;;;;;;;19.90;14.60;;;;;;;0.92;100.00;99382.88;432786;1267;139511;-70
2023/12/14 17:26:54;;;;;;;22.40;14.40;;;;;;;0.88;100.00;99393.54;432143;1263;138692;-70
2023/12/14 17:37:01;;;;;;;21.70;15.60;;;;;;;0.86;100.00;99410.11;432412;1266;138990;-70
2023/12/14 17:47:08;;;;;;;23.60;17.10;;;;;;;0.81;100.00;99423.49;432435;1263;140312;-71
2023/12/14 17:57:14;;;;;;;23.00;16.70;;;;;;;0.80;100.00;99431.96;431988;1264;139176;-71
2023/12/14 18:07:20;;;;;;;25.30;16.00;;;;;;;0.79;100.00;99447.69;431745;1263;138823;-71
2023/12/14 18:17:27;;;;;;;25.90;16.50;;;;;;;0.75;100.00;99468.14;432083;1264;140114;-70
2023/12/14 18:27:36;;;;;;;25.50;14.30;;;;;;;0.67;100.00;99482.48;432496;1262;139284;-71
2023/12/14 18:37:43;;;;;;;30.80;17.70;;;;;;;0.58;100.00;99491.98;432284;1263;139167;-70
2023/12/14 18:47:49;;;;;;;21.90;17.30;;;;;;;0.51;100.00;99508.52;432161;1264;139906;-71
2023/12/14 18:57:56;;;;;;;15.90;11.10;;;;;;;0.45;100.00;99534.14;431456;1266;139595;-71
2023/12/14 19:08:03;;;;;;;21.90;13.40;;;;;;;0.39;100.00;99546.33;432772;1264;139767;-72
2023/12/14 19:18:09;;;;;;;21.10;13.20;;;;;;;0.38;100.00;99561.86;432407;1263;139099;-72
2023/12/14 19:28:19;;;;;;;21.40;12.70;;;;;;;0.35;100.00;99585.35;431643;1267;139521;-70
2023/12/14 19:38:25;;;;;;;21.40;15.00;;;;;;;0.29;100.00;99601.84;431616;1264;139710;-71
2023/12/14 19:48:31;;;;;;;19.30;12.20;;;;;;;0.23;100.00;99615.55;433190;1262;139483;-69
2023/12/14 19:58:38;;;;;;;17.90;12.40;;;;;;;0.20;100.00;99628.19;434020;1262;139285;-69
2023/12/14 20:08:45;;;;;;;21.30;14.60;;;;;;;0.19;100.00;99640.08;432918;1260;139378;-70
2023/12/14 20:18:49;;;;;;;;;;;;;;;0.16;100.00;99652.39;433338;1259;139778;-68
2023/12/14 20:28:56;;;;;;;20.30;13.90;;;;;;;0.16;100.00;99663.91;434018;1262;126271;-71
2023/12/14 20:39:03;;;;;;;18.80;14.20;;;;;;;0.10;100.00;99684.52;434593;1258;139704;-70
2023/12/14 20:49:09;;;;;;;19.50;14.30;;;;;;;0.04;100.00;99698.74;436528;1257;139116;-70
2023/12/14 20:59:15;;;;;;;18.80;14.80;;;;;;;0.01;100.00;99719.64;433824;1257;139246;-68
2023/12/14 21:09:21;;;;;;;13.80;11.30;;;;;;;-0.04;100.00;99736.24;432881;1259;140723;-67
2023/12/14 21:19:28;;;;;;;18.20;12.30;;;;;;;-0.10;100.00;99759.05;432793;1260;140461;-67
2023/12/14 21:29:34;;;;;;;15.80;12.80;;;;;;;-0.20;100.00;99776.61;433452;1258;140058;-67
2023/12/14 21:39:40;;;;;;;14.00;11.20;;;;;;;-0.23;100.00;99789.73;432685;1262;140217;-67
2023/12/14 21:49:47;;;;;;;14.20;11.30;;;;;;;-0.25;100.00;99807.15;434948;1258;139735;-68
2023/12/14 21:59:53;;;;;;;13.50;11.60;;;;;;;-0.29;100.00;99818.39;432807;1257;140790;-69
2023/12/14 22:09:59;;;;;;;16.40;12.90;;;;;;;-0.31;100.00;99831.16;433578;1259;140489;-67
2023/12/14 22:20:09;;;;;;;17.80;12.20;;;;;;;-0.33;100.00;99850.97;433738;1258;139153;-69
2023/12/14 22:30:16;;;;;;;16.90;12.00;;;;;;;-0.38;100.00;99863.95;433195;1262;142152;-68
2023/12/14 22:40:22;;;;;;;13.30;10.00;;;;;;;-0.45;100.00;99880.55;432474;1257;139472;-69
2023/12/14 22:50:29;;;;;;;15.50;12.10;;;;;;;-0.59;100.00;99895.88;433558;1259;139490;-68
2023/12/14 23:00:38;;;;;;;15.20;9.90;;;;;;;-0.82;100.00;99905.27;433185;1263;140751;-69
2023/12/14 23:10:44;;;;;;;17.60;12.70;;;;;;;-1.01;100.00;99912.72;433617;1261;139320;-67
2023/12/14 23:20:51;;;;;;;16.10;11.30;;;;;;;-1.06;100.00;99926.36;432643;1258;139365;-68
2023/12/14 23:30:57;;;;;;;13.70;10.60;;;;;;;-1.04;100.00;99951.23;434085;1257;140400;-67
2023/12/14 23:41:03;;;;;;;11.70;9.90;;;;;;;-1.03;100.00;99975.29;434194;1257;139778;-67
2023/12/14 23:51:11;;;;;;;15.10;11.80;;;;;;;-1.02;100.00;99981.30;432507;1262;139897;-66
